Flight Track Log - Related Links

Times and Time Zones

All times are in EDT time to prevent confusion due to time zone crossing. See the N475JC flight status page for this flight to view local times or setup timezone preferences in your user account.

Time Position Orientation Groundspeed Altitude Reporting Facility
EDT Latitude Longitude Course Direction KTS MPH feet Rate Location/Type
Sun 01:01:36 PM 39.1167 -76.6833 191° South 243 280 3,900  Level Potomac TRACON
Sun 01:02:36 PM 39.1667 -76.7500 314° West 276 318 5,900 2,950 Climbing Potomac TRACON
Sun 01:03:36 PM 39.2333 -76.8167 322° Northwest 278 320 9,800 3,950 Climbing Potomac TRACON
Sun 01:04:36 PM 39.2500 -76.9000 285° West 273 314 13,800 3,550 Climbing Potomac TRACON
Sun 01:05:36 PM 39.2500 -77.0000 270° West 275 316 16,900 1,650 Climbing Potomac TRACON
Sun 01:06:36 PM 39.1833 -77.0667 218° Southwest 338 389 17,100 500 Climbing Potomac TRACON
Sun 01:07:36 PM 39.1167 -77.1500 224° Southwest 347 399 17,900 1,250 Climbing Potomac TRACON
Sun 01:08:36 PM 39.0333 -77.2167 212° Southwest 318 366 19,600 2,132 Climbing Potomac TRACON
Sun 01:09:37 PM 38.9667 -77.2833 218° Southwest 310 357 22,200 1,052 Climbing Potomac TRACON
Sun 01:11:50 PM 38.8117 -77.4406 218° Southwest 366 421 23,000 249 Climbing Washington Center
Sun 01:12:50 PM 38.7292 -77.5183 216° Southwest 361 415 23,000 763 Level Washington Center
Sun 01:13:48 PM 38.6467 -77.5958 216° Southwest 373 429 24,500 1,513 Climbing Washington Center
Sun 01:14:49 PM 38.5681 -77.6708 217° Southwest 367 422 26,000 738 Climbing Washington Center
Sun 01:15:50 PM 38.4872 -77.7614 221° Southwest 362 417 26,000  Level Washington Center
Sun 01:16:47 PM 38.4536 -77.8878 251° West 357 411 26,000  Level Washington Center
Sun 01:17:48 PM 38.4261 -78.0167 255° West 364 419 26,000  Level Washington Center
Sun 01:18:49 PM 38.3964 -78.1481 254° West 379 436 26,000  Level Washington Center
Sun 01:19:47 PM 38.3664 -78.2794 254° West 384 442 26,000  Level Washington Center
Sun 01:20:50 PM 38.3383 -78.4136 255° West 390 449 26,000  Level Washington Center
Sun 01:21:48 PM 38.3058 -78.5472 253° West 396 456 26,000  Level Washington Center
Sun 01:22:48 PM 38.2753 -78.6811 254° West 396 456 26,000  Level Washington Center
Sun 01:23:49 PM 38.2489 -78.8119 256° West 396 456 26,000  Level Washington Center
Sun 01:24:50 PM 38.2183 -78.9350 252° West 396 456 26,000  Level Washington Center
Sun 01:25:48 PM 38.1897 -79.0658 254° West 396 456 26,000 -153 Level Washington Center
Sun 01:26:48 PM 38.1564 -79.2017 253° West 396 456 25,700 -1,488 Descending Washington Center
Sun 01:27:49 PM 38.1275 -79.3322 254° West 396 456 23,000 -3,100 Descending Washington Center
Sun 01:28:48 PM 38.0961 -79.4653 253° West 391 450 19,500 -3,076 Descending Washington Center
Sun 01:29:48 PM 38.0694 -79.5772 253° West 357 411 16,900 -2,750 Descending Washington Center
Sun 01:30:48 PM 38.0456 -79.6708 252° West 320 368 14,000 -2,852 Descending Washington Center
Sun 01:31:50 PM 38.0281 -79.7517 255° West 283 326 11,100 -2,311 Descending Washington Center
Sun 01:32:50 PM 38.0064 -79.8375 252° West 270 311 9,300 -1,385 Descending Washington Center
Sun 01:33:47 PM 37.9894 -79.9025 252° West 234 269 8,400 -966 Descending Washington Center
Sun 01:34:48 PM 37.9767 -79.9650 255° West 201 231 7,400 -639 Descending Washington Center
Sun 01:35:49 PM 37.9644 -80.0169 253° West 163 188 7,100 -148 Descending Washington Center
Sun 01:36:50 PM 37.9650 -80.0564 271° West 136 157 7,100 -50 Level Washington Center
Sun 01:37:50 PM 38.0150 -80.0594 357° North 106 122 7,000 -51 Descending Washington Center
Sun 01:38:48 PM 38.0631 -80.0569 North 139 160 7,000  Level Washington Center
Sun 01:39:49 PM 38.0831 -80.0819 315° West 150 173 7,000  Level Washington Center
Sun 01:40:49 PM 38.0753 -80.1236 257° West 93 107 7,000 -50 Level Washington Center
Sun 01:41:48 PM 38.0633 -80.1600 247° West 98 113 6,900 -504 Descending Washington Center
Sun 01:42:48 PM 38.0469 -80.2064 246° West 124 143 6,000 -496 Descending Washington Center
Sun 01:43:49 PM 38.0242 -80.2550 239° Southwest 147 169 5,900 -590 Descending Washington Center
Sun 01:44:50 PM 37.9897 -80.2872 216° Southwest 153 176 4,800 -857 Descending Washington Center
Sun 01:45:48 PM 37.9528 -80.3192 214° Southwest 163 188 4,200 -508 Descending Washington Center
Sun 01:46:48 PM 37.9183 -80.3511 216° Southwest 163 188 3,800 -443 Descending Washington Center
Sun 01:47:50 PM 37.8814 -80.3831 214° Southwest 163 188 3,300 -484 Descending Washington Center

Login

Don't have an account? Register now (free) for customized features, flight alerts, and more!